sensor_id;sensor_type;location;lat;lon;timestamp;P1;durP1;ratioP1;P2;durP2;ratioP2
46429;SDS011;32131;53.454;-6.180;2023-07-20T00:00:58;3.47;;;1.20;;
46429;SDS011;32131;53.454;-6.180;2023-07-20T00:03:26;1.55;;;1.05;;
46429;SDS011;32131;53.454;-6.180;2023-07-20T00:05:56;3.33;;;1.08;;
46429;SDS011;32131;53.454;-6.180;2023-07-20T00:08:24;3.03;;;1.55;;
46429;SDS011;32131;53.454;-6.180;2023-07-20T00:10:53;1.87;;;1.23;;
46429;SDS011;32131;53.454;-6.180;2023-07-20T00:13:22;2.63;;;1.50;;
46429;SDS011;32131;53.454;-6.180;2023-07-20T00:15:53;1.98;;;1.20;;
46429;SDS011;32131;53.454;-6.180;2023-07-20T00:18:21;4.80;;;1.45;;
46429;SDS011;32131;53.454;-6.180;2023-07-20T00:20:50;5.78;;;1.60;;
46429;SDS011;32131;53.454;-6.180;2023-07-20T00:23:18;2.33;;;1.38;;
46429;SDS011;32131;53.454;-6.180;2023-07-20T00:25:47;4.63;;;1.83;;
46429;SDS011;32131;53.454;-6.180;2023-07-20T00:28:16;2.92;;;1.25;;
46429;SDS011;32131;53.454;-6.180;2023-07-20T00:30:44;4.43;;;1.60;;
46429;SDS011;32131;53.454;-6.180;2023-07-20T00:33:16;2.30;;;1.27;;
46429;SDS011;32131;53.454;-6.180;2023-07-20T00:35:45;3.90;;;1.73;;
46429;SDS011;32131;53.454;-6.180;2023-07-20T00:38:14;4.03;;;1.52;;
46429;SDS011;32131;53.454;-6.180;2023-07-20T00:40:42;2.42;;;1.33;;
46429;SDS011;32131;53.454;-6.180;2023-07-20T00:43:12;2.15;;;0.90;;
46429;SDS011;32131;53.454;-6.180;2023-07-20T00:45:40;1.58;;;1.00;;
46429;SDS011;32131;53.454;-6.180;2023-07-20T00:48:10;4.78;;;1.27;;
46429;SDS011;32131;53.454;-6.180;2023-07-20T00:50:40;2.42;;;1.30;;
46429;SDS011;32131;53.454;-6.180;2023-07-20T00:55:37;1.85;;;1.00;;
46429;SDS011;32131;53.454;-6.180;2023-07-20T00:58:06;2.13;;;1.35;;
46429;SDS011;32131;53.454;-6.180;2023-07-20T01:00:34;1.90;;;0.95;;
46429;SDS011;32131;53.454;-6.180;2023-07-20T01:03:02;1.65;;;1.17;;
46429;SDS011;32131;53.454;-6.180;2023-07-20T01:05:33;3.45;;;1.42;;
46429;SDS011;32131;53.454;-6.180;2023-07-20T01:08:11;3.53;;;1.73;;
46429;SDS011;32131;53.454;-6.180;2023-07-20T01:10:46;3.58;;;1.15;;
46429;SDS011;32131;53.454;-6.180;2023-07-20T01:13:20;1.55;;;1.00;;
46429;SDS011;32131;53.454;-6.180;2023-07-20T01:15:49;3.70;;;1.30;;
46429;SDS011;32131;53.454;-6.180;2023-07-20T01:18:18;3.47;;;1.58;;
46429;SDS011;32131;53.454;-6.180;2023-07-20T01:20:47;4.07;;;1.23;;
46429;SDS011;32131;53.454;-6.180;2023-07-20T01:23:41;2.15;;;1.20;;
46429;SDS011;32131;53.454;-6.180;2023-07-20T01:26:37;1.92;;;1.20;;
46429;SDS011;32131;53.454;-6.180;2023-07-20T01:29:30;2.65;;;1.33;;
46429;SDS011;32131;53.454;-6.180;2023-07-20T01:32:12;2.47;;;1.40;;
46429;SDS011;32131;53.454;-6.180;2023-07-20T01:34:43;2.70;;;1.52;;
46429;SDS011;32131;53.454;-6.180;2023-07-20T01:37:12;3.33;;;1.23;;
46429;SDS011;32131;53.454;-6.180;2023-07-20T01:39:42;1.77;;;1.03;;
46429;SDS011;32131;53.454;-6.180;2023-07-20T01:42:10;3.33;;;1.35;;
46429;SDS011;32131;53.454;-6.180;2023-07-20T01:44:39;1.67;;;1.08;;
46429;SDS011;32131;53.454;-6.180;2023-07-20T01:47:08;4.40;;;1.35;;
46429;SDS011;32131;53.454;-6.180;2023-07-20T01:49:38;2.40;;;1.15;;
46429;SDS011;32131;53.454;-6.180;2023-07-20T01:52:06;4.68;;;1.48;;
46429;SDS011;32131;53.454;-6.180;2023-07-20T01:54:35;1.88;;;1.33;;
46429;SDS011;32131;53.454;-6.180;2023-07-20T01:57:04;3.97;;;1.47;;
46429;SDS011;32131;53.454;-6.180;2023-07-20T01:59:32;5.50;;;1.30;;
46429;SDS011;32131;53.454;-6.180;2023-07-20T02:02:01;6.10;;;1.48;;
46429;SDS011;32131;53.454;-6.180;2023-07-20T02:04:29;1.67;;;1.08;;
46429;SDS011;32131;53.454;-6.180;2023-07-20T02:06:59;2.40;;;1.30;;
46429;SDS011;32131;53.454;-6.180;2023-07-20T02:09:27;6.03;;;2.00;;
46429;SDS011;32131;53.454;-6.180;2023-07-20T02:11:55;2.92;;;1.42;;
46429;SDS011;32131;53.454;-6.180;2023-07-20T02:14:23;3.28;;;1.65;;
46429;SDS011;32131;53.454;-6.180;2023-07-20T02:16:52;6.53;;;1.98;;
46429;SDS011;32131;53.454;-6.180;2023-07-20T02:19:24;3.55;;;1.67;;
46429;SDS011;32131;53.454;-6.180;2023-07-20T02:21:53;3.92;;;1.70;;
46429;SDS011;32131;53.454;-6.180;2023-07-20T02:24:22;4.55;;;1.85;;
46429;SDS011;32131;53.454;-6.180;2023-07-20T02:29:19;4.03;;;1.65;;
46429;SDS011;32131;53.454;-6.180;2023-07-20T02:31:48;3.10;;;1.90;;
46429;SDS011;32131;53.454;-6.180;2023-07-20T02:34:16;2.63;;;1.40;;
46429;SDS011;32131;53.454;-6.180;2023-07-20T02:36:45;3.33;;;1.40;;
46429;SDS011;32131;53.454;-6.180;2023-07-20T02:39:14;3.28;;;1.42;;
46429;SDS011;32131;53.454;-6.180;2023-07-20T02:41:44;3.20;;;1.80;;
46429;SDS011;32131;53.454;-6.180;2023-07-20T02:44:13;6.72;;;2.35;;
46429;SDS011;32131;53.454;-6.180;2023-07-20T02:46:42;3.78;;;1.75;;
46429;SDS011;32131;53.454;-6.180;2023-07-20T02:49:10;6.28;;;1.90;;
46429;SDS011;32131;53.454;-6.180;2023-07-20T02:51:39;4.22;;;2.03;;
46429;SDS011;32131;53.454;-6.180;2023-07-20T02:54:07;3.30;;;1.63;;
46429;SDS011;32131;53.454;-6.180;2023-07-20T02:56:37;2.58;;;1.73;;
46429;SDS011;32131;53.454;-6.180;2023-07-20T02:59:08;6.72;;;1.80;;
46429;SDS011;32131;53.454;-6.180;2023-07-20T03:01:36;5.10;;;1.85;;
46429;SDS011;32131;53.454;-6.180;2023-07-20T03:04:04;3.42;;;1.75;;
46429;SDS011;32131;53.454;-6.180;2023-07-20T03:06:36;6.35;;;1.70;;
46429;SDS011;32131;53.454;-6.180;2023-07-20T03:09:05;3.75;;;1.95;;
46429;SDS011;32131;53.454;-6.180;2023-07-20T03:11:35;4.68;;;1.83;;
46429;SDS011;32131;53.454;-6.180;2023-07-20T03:14:04;4.00;;;1.95;;
46429;SDS011;32131;53.454;-6.180;2023-07-20T03:16:34;3.80;;;2.15;;
46429;SDS011;32131;53.454;-6.180;2023-07-20T03:19:03;4.40;;;2.13;;
46429;SDS011;32131;53.454;-6.180;2023-07-20T03:21:31;2.80;;;1.85;;
46429;SDS011;32131;53.454;-6.180;2023-07-20T03:24:00;4.47;;;2.03;;
46429;SDS011;32131;53.454;-6.180;2023-07-20T03:26:31;5.70;;;1.80;;
46429;SDS011;32131;53.454;-6.180;2023-07-20T03:28:59;5.63;;;1.83;;
46429;SDS011;32131;53.454;-6.180;2023-07-20T03:31:28;3.80;;;2.05;;
46429;SDS011;32131;53.454;-6.180;2023-07-20T03:33:58;6.75;;;1.92;;
46429;SDS011;32131;53.454;-6.180;2023-07-20T03:36:26;2.90;;;1.70;;
46429;SDS011;32131;53.454;-6.180;2023-07-20T03:38:56;9.05;;;2.10;;
46429;SDS011;32131;53.454;-6.180;2023-07-20T03:41:24;4.63;;;2.22;;
46429;SDS011;32131;53.454;-6.180;2023-07-20T03:43:52;2.72;;;1.48;;
46429;SDS011;32131;53.454;-6.180;2023-07-20T03:46:22;3.10;;;2.05;;
46429;SDS011;32131;53.454;-6.180;2023-07-20T03:48:51;4.70;;;1.90;;
46429;SDS011;32131;53.454;-6.180;2023-07-20T03:51:22;4.18;;;2.40;;
46429;SDS011;32131;53.454;-6.180;2023-07-20T03:53:50;3.58;;;1.88;;
46429;SDS011;32131;53.454;-6.180;2023-07-20T03:56:20;4.28;;;2.20;;
46429;SDS011;32131;53.454;-6.180;2023-07-20T03:58:48;4.15;;;2.45;;
46429;SDS011;32131;53.454;-6.180;2023-07-20T04:01:17;5.07;;;2.53;;
46429;SDS011;32131;53.454;-6.180;2023-07-20T04:03:46;4.20;;;2.25;;
46429;SDS011;32131;53.454;-6.180;2023-07-20T04:06:15;3.37;;;2.07;;
46429;SDS011;32131;53.454;-6.180;2023-07-20T04:08:45;6.13;;;1.80;;
46429;SDS011;32131;53.454;-6.180;2023-07-20T04:11:15;4.03;;;2.22;;
46429;SDS011;32131;53.454;-6.180;2023-07-20T04:13:43;7.50;;;2.47;;
46429;SDS011;32131;53.454;-6.180;2023-07-20T04:16:12;8.02;;;2.53;;
46429;SDS011;32131;53.454;-6.180;2023-07-20T04:18:40;7.80;;;2.40;;
46429;SDS011;32131;53.454;-6.180;2023-07-20T04:23:38;3.63;;;2.08;;
46429;SDS011;32131;53.454;-6.180;2023-07-20T04:26:08;3.22;;;2.38;;
46429;SDS011;32131;53.454;-6.180;2023-07-20T04:28:39;4.93;;;2.47;;
46429;SDS011;32131;53.454;-6.180;2023-07-20T04:31:09;4.82;;;2.33;;
46429;SDS011;32131;53.454;-6.180;2023-07-20T04:33:38;3.22;;;2.15;;
46429;SDS011;32131;53.454;-6.180;2023-07-20T04:36:08;5.13;;;2.83;;
46429;SDS011;32131;53.454;-6.180;2023-07-20T04:38:37;5.15;;;2.33;;
46429;SDS011;32131;53.454;-6.180;2023-07-20T04:41:05;4.78;;;2.58;;
46429;SDS011;32131;53.454;-6.180;2023-07-20T04:43:40;3.78;;;2.25;;
46429;SDS011;32131;53.454;-6.180;2023-07-20T04:46:09;4.95;;;2.50;;
46429;SDS011;32131;53.454;-6.180;2023-07-20T04:48:37;4.65;;;2.42;;
46429;SDS011;32131;53.454;-6.180;2023-07-20T04:51:07;7.03;;;2.58;;
46429;SDS011;32131;53.454;-6.180;2023-07-20T04:53:37;4.68;;;2.55;;
46429;SDS011;32131;53.454;-6.180;2023-07-20T04:56:06;4.43;;;2.53;;
46429;SDS011;32131;53.454;-6.180;2023-07-20T04:58:37;5.72;;;2.13;;
46429;SDS011;32131;53.454;-6.180;2023-07-20T05:01:05;5.50;;;2.85;;
46429;SDS011;32131;53.454;-6.180;2023-07-20T05:06:04;5.65;;;2.65;;
46429;SDS011;32131;53.454;-6.180;2023-07-20T05:08:33;5.53;;;2.67;;
46429;SDS011;32131;53.454;-6.180;2023-07-20T05:11:01;7.22;;;2.38;;
46429;SDS011;32131;53.454;-6.180;2023-07-20T05:13:32;6.03;;;2.73;;
46429;SDS011;32131;53.454;-6.180;2023-07-20T05:16:01;6.50;;;3.08;;
46429;SDS011;32131;53.454;-6.180;2023-07-20T05:18:30;5.55;;;2.90;;
46429;SDS011;32131;53.454;-6.180;2023-07-20T05:20:59;4.57;;;2.90;;
46429;SDS011;32131;53.454;-6.180;2023-07-20T05:23:27;6.28;;;2.85;;
46429;SDS011;32131;53.454;-6.180;2023-07-20T05:25:56;8.70;;;3.35;;
46429;SDS011;32131;53.454;-6.180;2023-07-20T05:28:25;11.75;;;3.40;;
46429;SDS011;32131;53.454;-6.180;2023-07-20T05:30:55;5.07;;;2.92;;
46429;SDS011;32131;53.454;-6.180;2023-07-20T05:33:26;5.82;;;3.35;;
46429;SDS011;32131;53.454;-6.180;2023-07-20T05:35:54;5.15;;;3.05;;
46429;SDS011;32131;53.454;-6.180;2023-07-20T05:38:22;4.85;;;3.00;;
46429;SDS011;32131;53.454;-6.180;2023-07-20T05:40:51;7.20;;;2.78;;
46429;SDS011;32131;53.454;-6.180;2023-07-20T05:43:19;5.97;;;3.00;;
46429;SDS011;32131;53.454;-6.180;2023-07-20T05:45:50;6.47;;;3.22;;
46429;SDS011;32131;53.454;-6.180;2023-07-20T05:48:21;6.47;;;3.63;;
46429;SDS011;32131;53.454;-6.180;2023-07-20T05:50:51;5.85;;;3.13;;
46429;SDS011;32131;53.454;-6.180;2023-07-20T05:53:21;7.32;;;3.70;;
46429;SDS011;32131;53.454;-6.180;2023-07-20T05:55:53;6.05;;;3.22;;
46429;SDS011;32131;53.454;-6.180;2023-07-20T05:58:22;9.63;;;3.63;;
46429;SDS011;32131;53.454;-6.180;2023-07-20T06:00:50;6.15;;;3.53;;
46429;SDS011;32131;53.454;-6.180;2023-07-20T06:03:20;10.57;;;3.33;;
46429;SDS011;32131;53.454;-6.180;2023-07-20T06:05:50;8.35;;;4.00;;
46429;SDS011;32131;53.454;-6.180;2023-07-20T06:08:19;9.20;;;3.47;;
46429;SDS011;32131;53.454;-6.180;2023-07-20T06:10:50;6.93;;;3.88;;
46429;SDS011;32131;53.454;-6.180;2023-07-20T06:13:19;7.57;;;3.80;;
46429;SDS011;32131;53.454;-6.180;2023-07-20T06:15:47;5.47;;;3.60;;
46429;SDS011;32131;53.454;-6.180;2023-07-20T06:18:17;9.52;;;4.63;;
46429;SDS011;32131;53.454;-6.180;2023-07-20T06:20:51;6.95;;;4.07;;
46429;SDS011;32131;53.454;-6.180;2023-07-20T06:23:20;6.22;;;3.28;;
46429;SDS011;32131;53.454;-6.180;2023-07-20T06:25:51;9.00;;;4.40;;
46429;SDS011;32131;53.454;-6.180;2023-07-20T06:28:19;6.70;;;3.85;;
46429;SDS011;32131;53.454;-6.180;2023-07-20T06:30:48;6.82;;;3.85;;
46429;SDS011;32131;53.454;-6.180;2023-07-20T06:33:18;6.20;;;3.78;;
46429;SDS011;32131;53.454;-6.180;2023-07-20T06:35:46;6.60;;;3.65;;
46429;SDS011;32131;53.454;-6.180;2023-07-20T06:38:16;7.32;;;4.35;;
46429;SDS011;32131;53.454;-6.180;2023-07-20T06:40:48;6.65;;;4.07;;
46429;SDS011;32131;53.454;-6.180;2023-07-20T06:43:17;9.10;;;4.38;;
46429;SDS011;32131;53.454;-6.180;2023-07-20T06:45:51;9.88;;;4.75;;
46429;SDS011;32131;53.454;-6.180;2023-07-20T06:48:21;12.82;;;4.55;;
46429;SDS011;32131;53.454;-6.180;2023-07-20T06:50:50;7.90;;;4.47;;
46429;SDS011;32131;53.454;-6.180;2023-07-20T06:53:20;7.65;;;4.28;;
46429;SDS011;32131;53.454;-6.180;2023-07-20T06:55:48;22.10;;;4.55;;
46429;SDS011;32131;53.454;-6.180;2023-07-20T06:58:17;10.50;;;4.85;;
46429;SDS011;32131;53.454;-6.180;2023-07-20T07:00:45;7.32;;;4.45;;
46429;SDS011;32131;53.454;-6.180;2023-07-20T07:03:15;9.73;;;5.47;;
46429;SDS011;32131;53.454;-6.180;2023-07-20T07:05:44;8.75;;;5.20;;
46429;SDS011;32131;53.454;-6.180;2023-07-20T07:08:17;7.75;;;4.00;;
46429;SDS011;32131;53.454;-6.180;2023-07-20T07:10:47;8.27;;;4.55;;
46429;SDS011;32131;53.454;-6.180;2023-07-20T07:13:18;10.07;;;4.95;;
46429;SDS011;32131;53.454;-6.180;2023-07-20T07:15:47;8.05;;;5.35;;
46429;SDS011;32131;53.454;-6.180;2023-07-20T07:18:16;11.93;;;5.32;;
46429;SDS011;32131;53.454;-6.180;2023-07-20T07:20:52;10.27;;;5.10;;
46429;SDS011;32131;53.454;-6.180;2023-07-20T07:23:23;6.95;;;4.70;;
46429;SDS011;32131;53.454;-6.180;2023-07-20T07:25:53;8.50;;;5.72;;
46429;SDS011;32131;53.454;-6.180;2023-07-20T07:28:21;10.20;;;5.07;;
46429;SDS011;32131;53.454;-6.180;2023-07-20T07:30:58;10.15;;;5.60;;
46429;SDS011;32131;53.454;-6.180;2023-07-20T07:33:33;8.75;;;5.43;;
46429;SDS011;32131;53.454;-6.180;2023-07-20T07:36:02;8.02;;;5.20;;
46429;SDS011;32131;53.454;-6.180;2023-07-20T07:38:30;7.85;;;5.28;;
46429;SDS011;32131;53.454;-6.180;2023-07-20T07:41:20;13.82;;;6.05;;
46429;SDS011;32131;53.454;-6.180;2023-07-20T07:46:20;12.48;;;5.60;;
46429;SDS011;32131;53.454;-6.180;2023-07-20T07:48:49;12.37;;;6.33;;
46429;SDS011;32131;53.454;-6.180;2023-07-20T07:51:18;11.57;;;6.00;;
46429;SDS011;32131;53.454;-6.180;2023-07-20T07:53:46;9.60;;;6.07;;
46429;SDS011;32131;53.454;-6.180;2023-07-20T07:56:15;11.60;;;5.97;;
46429;SDS011;32131;53.454;-6.180;2023-07-20T07:58:50;9.90;;;6.32;;
46429;SDS011;32131;53.454;-6.180;2023-07-20T08:03:49;10.20;;;6.15;;
46429;SDS011;32131;53.454;-6.180;2023-07-20T08:06:17;9.25;;;6.00;;
46429;SDS011;32131;53.454;-6.180;2023-07-20T08:08:46;10.70;;;6.07;;
46429;SDS011;32131;53.454;-6.180;2023-07-20T08:11:14;11.38;;;6.72;;
46429;SDS011;32131;53.454;-6.180;2023-07-20T08:13:44;9.23;;;5.90;;
46429;SDS011;32131;53.454;-6.180;2023-07-20T08:16:14;9.98;;;6.13;;
46429;SDS011;32131;53.454;-6.180;2023-07-20T08:18:43;20.42;;;6.43;;
46429;SDS011;32131;53.454;-6.180;2023-07-20T08:21:13;12.00;;;6.93;;
46429;SDS011;32131;53.454;-6.180;2023-07-20T08:23:41;15.45;;;6.60;;
46429;SDS011;32131;53.454;-6.180;2023-07-20T08:26:09;13.15;;;6.03;;
46429;SDS011;32131;53.454;-6.180;2023-07-20T08:28:39;12.40;;;5.90;;
46429;SDS011;32131;53.454;-6.180;2023-07-20T08:31:08;9.80;;;5.97;;
46429;SDS011;32131;53.454;-6.180;2023-07-20T08:33:38;10.32;;;6.03;;
46429;SDS011;32131;53.454;-6.180;2023-07-20T08:36:06;9.90;;;5.72;;
46429;SDS011;32131;53.454;-6.180;2023-07-20T08:38:37;8.73;;;5.45;;
46429;SDS011;32131;53.454;-6.180;2023-07-20T08:41:05;6.97;;;5.00;;
46429;SDS011;32131;53.454;-6.180;2023-07-20T08:43:35;10.00;;;5.20;;
46429;SDS011;32131;53.454;-6.180;2023-07-20T08:46:09;7.63;;;5.00;;
46429;SDS011;32131;53.454;-6.180;2023-07-20T08:48:42;12.77;;;4.90;;
46429;SDS011;32131;53.454;-6.180;2023-07-20T08:51:12;6.82;;;4.57;;
46429;SDS011;32131;53.454;-6.180;2023-07-20T08:53:43;5.70;;;4.43;;
46429;SDS011;32131;53.454;-6.180;2023-07-20T08:56:14;5.57;;;4.22;;
46429;SDS011;32131;53.454;-6.180;2023-07-20T08:58:53;6.38;;;4.53;;
46429;SDS011;32131;53.454;-6.180;2023-07-20T09:01:22;7.57;;;4.50;;
46429;SDS011;32131;53.454;-6.180;2023-07-20T09:03:54;9.35;;;4.65;;
46429;SDS011;32131;53.454;-6.180;2023-07-20T09:06:24;6.95;;;4.63;;
46429;SDS011;32131;53.454;-6.180;2023-07-20T09:08:54;8.38;;;4.43;;
46429;SDS011;32131;53.454;-6.180;2023-07-20T09:11:23;5.57;;;4.22;;
46429;SDS011;32131;53.454;-6.180;2023-07-20T09:14:01;5.50;;;3.92;;
46429;SDS011;32131;53.454;-6.180;2023-07-20T09:16:31;7.00;;;4.25;;
46429;SDS011;32131;53.454;-6.180;2023-07-20T09:19:01;6.53;;;4.57;;
46429;SDS011;32131;53.454;-6.180;2023-07-20T09:21:35;7.07;;;4.40;;
46429;SDS011;32131;53.454;-6.180;2023-07-20T09:24:05;5.68;;;4.20;;
46429;SDS011;32131;53.454;-6.180;2023-07-20T09:26:39;6.90;;;4.35;;
46429;SDS011;32131;53.454;-6.180;2023-07-20T09:29:09;9.45;;;4.63;;
46429;SDS011;32131;53.454;-6.180;2023-07-20T09:31:38;7.35;;;5.00;;
46429;SDS011;32131;53.454;-6.180;2023-07-20T09:34:10;7.13;;;4.60;;
46429;SDS011;32131;53.454;-6.180;2023-07-20T09:36:58;8.25;;;4.50;;
46429;SDS011;32131;53.454;-6.180;2023-07-20T09:39:28;8.48;;;4.72;;
46429;SDS011;32131;53.454;-6.180;2023-07-20T09:42:00;8.05;;;4.22;;
46429;SDS011;32131;53.454;-6.180;2023-07-20T09:44:33;7.28;;;4.10;;
46429;SDS011;32131;53.454;-6.180;2023-07-20T09:47:05;8.23;;;4.70;;
46429;SDS011;32131;53.454;-6.180;2023-07-20T09:49:39;7.38;;;4.43;;
46429;SDS011;32131;53.454;-6.180;2023-07-20T09:52:12;8.27;;;4.65;;
46429;SDS011;32131;53.454;-6.180;2023-07-20T09:55:02;9.32;;;4.93;;
46429;SDS011;32131;53.454;-6.180;2023-07-20T09:57:33;10.25;;;5.03;;
46429;SDS011;32131;53.454;-6.180;2023-07-20T10:00:06;6.95;;;4.78;;
46429;SDS011;32131;53.454;-6.180;2023-07-20T10:02:43;9.57;;;5.70;;
46429;SDS011;32131;53.454;-6.180;2023-07-20T10:05:14;8.55;;;4.88;;
46429;SDS011;32131;53.454;-6.180;2023-07-20T10:07:51;6.57;;;4.65;;
46429;SDS011;32131;53.454;-6.180;2023-07-20T10:10:44;8.85;;;5.10;;
46429;SDS011;32131;53.454;-6.180;2023-07-20T10:13:21;6.47;;;4.40;;
46429;SDS011;32131;53.454;-6.180;2023-07-20T10:16:11;8.18;;;4.50;;
46429;SDS011;32131;53.454;-6.180;2023-07-20T10:18:51;5.22;;;3.55;;
46429;SDS011;32131;53.454;-6.180;2023-07-20T10:21:33;5.07;;;3.97;;
46429;SDS011;32131;53.454;-6.180;2023-07-20T10:24:17;6.72;;;4.45;;
46429;SDS011;32131;53.454;-6.180;2023-07-20T10:26:49;6.97;;;4.15;;
46429;SDS011;32131;53.454;-6.180;2023-07-20T10:29:18;9.65;;;4.50;;
46429;SDS011;32131;53.454;-6.180;2023-07-20T10:31:48;6.38;;;4.40;;
46429;SDS011;32131;53.454;-6.180;2023-07-20T10:34:20;9.38;;;4.32;;
46429;SDS011;32131;53.454;-6.180;2023-07-20T10:36:51;6.07;;;4.07;;
46429;SDS011;32131;53.454;-6.180;2023-07-20T10:39:22;6.53;;;4.18;;
46429;SDS011;32131;53.454;-6.180;2023-07-20T10:42:03;6.55;;;3.72;;
46429;SDS011;32131;53.454;-6.180;2023-07-20T10:44:36;5.88;;;3.50;;
46429;SDS011;32131;53.454;-6.180;2023-07-20T10:47:09;5.45;;;3.38;;
46429;SDS011;32131;53.454;-6.180;2023-07-20T10:49:57;8.68;;;3.58;;
46429;SDS011;32131;53.454;-6.180;2023-07-20T10:52:33;5.28;;;3.58;;
46429;SDS011;32131;53.454;-6.180;2023-07-20T10:55:10;9.45;;;3.60;;
46429;SDS011;32131;53.454;-6.180;2023-07-20T10:57:42;4.68;;;3.17;;
46429;SDS011;32131;53.454;-6.180;2023-07-20T11:00:12;4.65;;;3.08;;
46429;SDS011;32131;53.454;-6.180;2023-07-20T11:02:42;6.03;;;3.70;;
46429;SDS011;32131;53.454;-6.180;2023-07-20T11:05:36;8.07;;;4.05;;
46429;SDS011;32131;53.454;-6.180;2023-07-20T11:08:09;6.10;;;4.40;;
46429;SDS011;32131;53.454;-6.180;2023-07-20T11:10:39;6.53;;;4.10;;
46429;SDS011;32131;53.454;-6.180;2023-07-20T11:13:17;6.90;;;4.05;;
46429;SDS011;32131;53.454;-6.180;2023-07-20T11:16:02;4.55;;;3.55;;
46429;SDS011;32131;53.454;-6.180;2023-07-20T11:18:33;5.82;;;3.70;;
46429;SDS011;32131;53.454;-6.180;2023-07-20T11:21:09;7.30;;;4.13;;
46429;SDS011;32131;53.454;-6.180;2023-07-20T11:23:40;6.45;;;4.00;;
46429;SDS011;32131;53.454;-6.180;2023-07-20T11:26:08;6.93;;;4.35;;
46429;SDS011;32131;53.454;-6.180;2023-07-20T11:28:39;7.38;;;3.60;;
46429;SDS011;32131;53.454;-6.180;2023-07-20T11:31:13;6.93;;;3.20;;
46429;SDS011;32131;53.454;-6.180;2023-07-20T11:33:43;4.85;;;2.97;;
46429;SDS011;32131;53.454;-6.180;2023-07-20T11:36:11;6.55;;;3.35;;
46429;SDS011;32131;53.454;-6.180;2023-07-20T11:38:44;7.60;;;3.22;;
46429;SDS011;32131;53.454;-6.180;2023-07-20T11:41:16;4.78;;;3.22;;
46429;SDS011;32131;53.454;-6.180;2023-07-20T11:43:44;5.25;;;3.20;;
46429;SDS011;32131;53.454;-6.180;2023-07-20T11:46:14;4.97;;;3.03;;
46429;SDS011;32131;53.454;-6.180;2023-07-20T11:48:43;4.80;;;3.35;;
46429;SDS011;32131;53.454;-6.180;2023-07-20T11:51:14;5.22;;;3.45;;
46429;SDS011;32131;53.454;-6.180;2023-07-20T11:53:44;7.33;;;4.03;;
46429;SDS011;32131;53.454;-6.180;2023-07-20T11:56:14;5.85;;;4.10;;
46429;SDS011;32131;53.454;-6.180;2023-07-20T11:58:43;5.20;;;4.05;;
46429;SDS011;32131;53.454;-6.180;2023-07-20T12:01:12;5.78;;;3.92;;
46429;SDS011;32131;53.454;-6.180;2023-07-20T12:03:42;8.90;;;4.38;;
46429;SDS011;32131;53.454;-6.180;2023-07-20T12:06:13;6.35;;;3.90;;
46429;SDS011;32131;53.454;-6.180;2023-07-20T12:08:43;6.93;;;4.35;;
46429;SDS011;32131;53.454;-6.180;2023-07-20T12:11:12;7.60;;;4.28;;
46429;SDS011;32131;53.454;-6.180;2023-07-20T12:13:42;7.28;;;3.88;;
46429;SDS011;32131;53.454;-6.180;2023-07-20T12:16:12;11.77;;;3.85;;
46429;SDS011;32131;53.454;-6.180;2023-07-20T12:18:42;7.03;;;3.72;;
46429;SDS011;32131;53.454;-6.180;2023-07-20T12:21:11;7.78;;;4.22;;
46429;SDS011;32131;53.454;-6.180;2023-07-20T12:23:39;4.40;;;2.80;;
46429;SDS011;32131;53.454;-6.180;2023-07-20T12:26:10;4.00;;;2.80;;
46429;SDS011;32131;53.454;-6.180;2023-07-20T12:28:38;4.45;;;2.90;;
46429;SDS011;32131;53.454;-6.180;2023-07-20T12:31:11;4.55;;;3.15;;
46429;SDS011;32131;53.454;-6.180;2023-07-20T12:33:40;3.83;;;2.90;;
46429;SDS011;32131;53.454;-6.180;2023-07-20T12:36:09;4.22;;;2.88;;
46429;SDS011;32131;53.454;-6.180;2023-07-20T12:38:38;4.35;;;3.08;;
46429;SDS011;32131;53.454;-6.180;2023-07-20T12:41:09;4.85;;;2.60;;
46429;SDS011;32131;53.454;-6.180;2023-07-20T12:43:40;4.40;;;2.72;;
46429;SDS011;32131;53.454;-6.180;2023-07-20T12:46:09;4.68;;;2.70;;
46429;SDS011;32131;53.454;-6.180;2023-07-20T12:48:40;3.42;;;2.47;;
46429;SDS011;32131;53.454;-6.180;2023-07-20T12:51:12;5.35;;;2.85;;
46429;SDS011;32131;53.454;-6.180;2023-07-20T12:53:41;4.20;;;2.95;;
46429;SDS011;32131;53.454;-6.180;2023-07-20T12:56:11;4.50;;;3.10;;
46429;SDS011;32131;53.454;-6.180;2023-07-20T12:58:42;6.22;;;3.45;;
46429;SDS011;32131;53.454;-6.180;2023-07-20T13:01:10;6.93;;;4.53;;
46429;SDS011;32131;53.454;-6.180;2023-07-20T13:03:39;7.40;;;4.32;;
46429;SDS011;32131;53.454;-6.180;2023-07-20T13:06:10;6.35;;;3.85;;
46429;SDS011;32131;53.454;-6.180;2023-07-20T13:08:41;8.38;;;4.55;;
46429;SDS011;32131;53.454;-6.180;2023-07-20T13:11:12;10.10;;;4.43;;
46429;SDS011;32131;53.454;-6.180;2023-07-20T13:13:41;7.50;;;3.95;;
46429;SDS011;32131;53.454;-6.180;2023-07-20T13:16:11;5.30;;;4.03;;
46429;SDS011;32131;53.454;-6.180;2023-07-20T13:18:39;6.00;;;3.97;;
46429;SDS011;32131;53.454;-6.180;2023-07-20T13:21:09;5.28;;;3.60;;
46429;SDS011;32131;53.454;-6.180;2023-07-20T13:23:38;11.25;;;4.00;;
46429;SDS011;32131;53.454;-6.180;2023-07-20T13:26:07;5.85;;;3.72;;
46429;SDS011;32131;53.454;-6.180;2023-07-20T13:28:37;5.80;;;3.88;;
46429;SDS011;32131;53.454;-6.180;2023-07-20T13:31:05;5.97;;;4.22;;
46429;SDS011;32131;53.454;-6.180;2023-07-20T13:33:39;5.88;;;4.43;;
46429;SDS011;32131;53.454;-6.180;2023-07-20T13:36:10;6.90;;;3.97;;
46429;SDS011;32131;53.454;-6.180;2023-07-20T13:38:40;6.63;;;4.25;;
46429;SDS011;32131;53.454;-6.180;2023-07-20T13:41:08;7.20;;;4.43;;
46429;SDS011;32131;53.454;-6.180;2023-07-20T13:43:38;5.97;;;4.22;;
46429;SDS011;32131;53.454;-6.180;2023-07-20T13:46:06;8.95;;;4.95;;
46429;SDS011;32131;53.454;-6.180;2023-07-20T13:48:42;9.18;;;4.18;;
46429;SDS011;32131;53.454;-6.180;2023-07-20T13:51:10;6.57;;;4.05;;
46429;SDS011;32131;53.454;-6.180;2023-07-20T13:53:39;6.15;;;4.50;;
46429;SDS011;32131;53.454;-6.180;2023-07-20T13:56:09;10.52;;;4.53;;
46429;SDS011;32131;53.454;-6.180;2023-07-20T13:58:43;5.72;;;3.95;;
46429;SDS011;32131;53.454;-6.180;2023-07-20T14:01:16;10.02;;;5.38;;
46429;SDS011;32131;53.454;-6.180;2023-07-20T14:04:05;6.55;;;4.63;;
46429;SDS011;32131;53.454;-6.180;2023-07-20T14:06:34;7.43;;;4.30;;
46429;SDS011;32131;53.454;-6.180;2023-07-20T14:09:06;5.25;;;4.03;;
46429;SDS011;32131;53.454;-6.180;2023-07-20T14:11:37;6.18;;;4.47;;
46429;SDS011;32131;53.454;-6.180;2023-07-20T14:14:11;5.88;;;4.50;;
46429;SDS011;32131;53.454;-6.180;2023-07-20T14:16:40;17.05;;;4.90;;
46429;SDS011;32131;53.454;-6.180;2023-07-20T14:19:08;5.20;;;3.67;;
46429;SDS011;32131;53.454;-6.180;2023-07-20T14:21:36;7.25;;;3.95;;
46429;SDS011;32131;53.454;-6.180;2023-07-20T14:24:07;6.22;;;4.10;;
46429;SDS011;32131;53.454;-6.180;2023-07-20T14:26:36;5.80;;;3.58;;
46429;SDS011;32131;53.454;-6.180;2023-07-20T14:29:05;4.60;;;3.30;;
46429;SDS011;32131;53.454;-6.180;2023-07-20T14:31:35;7.72;;;3.70;;
46429;SDS011;32131;53.454;-6.180;2023-07-20T14:34:05;6.20;;;3.53;;
46429;SDS011;32131;53.454;-6.180;2023-07-20T14:36:33;4.35;;;3.25;;
46429;SDS011;32131;53.454;-6.180;2023-07-20T14:39:09;6.03;;;3.58;;
46429;SDS011;32131;53.454;-6.180;2023-07-20T14:41:37;10.50;;;3.35;;
46429;SDS011;32131;53.454;-6.180;2023-07-20T14:44:07;5.55;;;2.72;;
46429;SDS011;32131;53.454;-6.180;2023-07-20T14:46:38;8.23;;;3.40;;
46429;SDS011;32131;53.454;-6.180;2023-07-20T14:49:06;6.25;;;2.88;;
46429;SDS011;32131;53.454;-6.180;2023-07-20T14:51:35;11.10;;;3.58;;
46429;SDS011;32131;53.454;-6.180;2023-07-20T14:54:09;6.32;;;3.22;;
46429;SDS011;32131;53.454;-6.180;2023-07-20T14:56:46;4.10;;;2.75;;
46429;SDS011;32131;53.454;-6.180;2023-07-20T14:59:17;7.25;;;2.40;;
46429;SDS011;32131;53.454;-6.180;2023-07-20T15:01:52;4.30;;;2.67;;
46429;SDS011;32131;53.454;-6.180;2023-07-20T15:04:23;3.78;;;2.30;;
46429;SDS011;32131;53.454;-6.180;2023-07-20T15:06:54;4.28;;;2.55;;
46429;SDS011;32131;53.454;-6.180;2023-07-20T15:09:23;3.78;;;1.88;;